createdAt,value
2017-07-24T00:00:57.079Z,50.72
2017-07-24T00:01:57.108Z,50.7
2017-07-24T00:02:57.136Z,50.6
2017-07-24T00:03:57.166Z,50.6
2017-07-24T00:04:57.210Z,50.53
2017-07-24T00:05:57.225Z,50.62
2017-07-24T00:06:57.252Z,50.6
2017-07-24T00:07:57.280Z,50.72
2017-07-24T00:08:57.306Z,50.34
2017-07-24T00:09:57.024Z,50.43
2017-07-24T00:10:57.363Z,50.5
2017-07-24T00:11:57.405Z,51.09
2017-07-24T00:12:57.421Z,50.89
2017-07-24T00:13:57.446Z,50.6
2017-07-24T00:14:57.478Z,50.5
2017-07-24T00:15:57.507Z,51.18
2017-07-24T00:16:57.541Z,51.4
2017-07-24T00:17:57.563Z,51.18
2017-07-24T00:18:57.585Z,51.18
2017-07-24T00:19:57.314Z,51.37
2017-07-24T00:20:57.651Z,51.18
2017-07-24T00:21:57.684Z,51.47
2017-07-24T00:22:57.709Z,51.37
2017-07-24T00:23:57.424Z,51.28
2017-07-24T00:24:57.767Z,51.18
2017-07-24T00:25:57.796Z,51.28
2017-07-24T00:26:57.819Z,51.09
2017-07-24T00:27:57.849Z,50.99
2017-07-24T00:28:57.567Z,51.47
2017-07-24T00:29:57.905Z,51.09
2017-07-24T00:30:57.935Z,51.18
2017-07-24T00:31:57.961Z,51.18
2017-07-24T00:32:57.992Z,51.37
2017-07-24T00:33:58.021Z,50.6
2017-07-24T00:34:58.050Z,50.79
2017-07-24T00:35:58.083Z,50.34
2017-07-24T00:36:58.117Z,50.92
2017-07-24T00:37:58.136Z,50.62
2017-07-24T00:38:58.106Z,50.82
2017-07-24T00:39:58.194Z,50.72
2017-07-24T00:40:58.224Z,51.01
2017-07-24T00:41:58.252Z,50.34
2017-07-24T00:42:58.280Z,50.82
2017-07-24T00:43:58.609Z,50.92
2017-07-24T00:44:58.335Z,50.92
2017-07-24T00:45:58.051Z,50.04
2017-07-24T00:46:58.079Z,50.14
2017-07-24T00:47:58.424Z,50.62
2017-07-24T00:48:58.706Z,50.24
2017-07-24T00:49:58.170Z,50.34
2017-07-24T00:50:58.508Z,51.01
2017-07-24T00:51:58.225Z,50.62
2017-07-24T00:52:58.258Z,50.92
2017-07-24T00:53:58.844Z,50.53
2017-07-24T00:54:58.312Z,50.82
2017-07-24T00:55:58.344Z,50.92
2017-07-24T00:56:58.368Z,50.43
2017-07-24T00:57:58.705Z,50.62
2017-07-24T00:58:58.992Z,50.62
2017-07-24T00:59:58.767Z,50.62
2017-07-24T01:00:58.484Z,50.62
2017-07-24T01:01:58.816Z,50.72
2017-07-24T01:02:58.542Z,50.53
2017-07-24T01:03:59.177Z,50.82
2017-07-24T01:04:58.599Z,50.82
2017-07-24T01:05:58.623Z,51.4
2017-07-24T01:06:58.648Z,51.21
2017-07-24T01:07:58.992Z,51.31
2017-07-24T01:08:59.022Z,51.31
2017-07-24T01:09:59.052Z,51.11
2017-07-24T01:10:58.762Z,51.4
2017-07-24T01:11:59.113Z,51.59
2017-07-24T01:12:59.138Z,51.69
2017-07-24T01:13:59.166Z,51.4
2017-07-24T01:14:59.195Z,51.4
2017-07-24T01:15:59.234Z,51.37
2017-07-24T01:16:59.253Z,51.57
2017-07-24T01:17:59.278Z,51.37
2017-07-24T01:18:59.310Z,51.76
2017-07-24T01:19:59.338Z,51.37
2017-07-24T01:20:59.364Z,51.57
2017-07-24T01:21:59.076Z,51.47
2017-07-24T01:22:59.421Z,51.67
2017-07-24T01:23:59.449Z,51.37
2017-07-24T01:24:59.476Z,51.57
2017-07-24T01:25:59.200Z,51.47
2017-07-24T01:26:59.533Z,51.47
2017-07-24T01:27:59.565Z,51.57
2017-07-24T01:28:59.594Z,51.47
2017-07-24T01:29:59.619Z,51.57
2017-07-24T01:30:59.351Z,51.67
2017-07-24T01:31:59.681Z,51.86
2017-07-24T01:32:59.714Z,51.47
2017-07-24T01:33:59.426Z,51.47
2017-07-24T01:34:59.455Z,51.67
2017-07-24T01:35:59.480Z,51.57
2017-07-24T01:36:59.824Z,50.99
2017-07-24T01:37:59.541Z,51.28
2017-07-24T01:38:59.571Z,51.18
2017-07-24T01:39:59.907Z,51.18
2017-07-24T01:40:59.939Z,51.28
2017-07-24T01:41:59.960Z,51.28
2017-07-24T01:42:59.997Z,50.99
2017-07-24T01:44:00.023Z,51.09
2017-07-24T01:45:00.047Z,51.09
2017-07-24T01:46:00.088Z,51.5
2017-07-24T01:47:00.109Z,51.37
2017-07-24T01:47:59.827Z,51.76
2017-07-24T01:49:00.172Z,51.67
2017-07-24T01:50:00.188Z,51.86
2017-07-24T01:51:00.220Z,51.67
2017-07-24T01:52:00.246Z,51.86
2017-07-24T01:53:00.274Z,51.57
2017-07-24T01:54:00.306Z,51.57
2017-07-24T01:55:00.333Z,51.67
2017-07-24T01:56:00.052Z,51.86
2017-07-24T01:57:00.084Z,51.67
2017-07-24T01:58:00.422Z,51.86
2017-07-24T01:59:00.457Z,51.47
2017-07-24T02:00:00.484Z,51.37
2017-07-24T02:01:00.507Z,51.28
2017-07-24T02:02:00.536Z,51.76
2017-07-24T02:03:00.564Z,51.86
2017-07-24T02:04:00.594Z,51.67
2017-07-24T02:05:00.623Z,51.57
2017-07-24T02:06:00.648Z,51.76
2017-07-24T02:07:00.678Z,52.15
2017-07-24T02:08:00.707Z,52.15
2017-07-24T02:09:00.735Z,51.67
2017-07-24T02:10:00.729Z,51.96
2017-07-24T02:11:00.481Z,51.76
2017-07-24T02:12:00.821Z,51.86
2017-07-24T02:13:00.848Z,52.15
2017-07-24T02:14:00.880Z,51.86
2017-07-24T02:15:01.159Z,52.06
2017-07-24T02:16:00.937Z,51.76
2017-07-24T02:17:00.960Z,51.67
2017-07-24T02:18:00.994Z,52.15
2017-07-24T02:19:01.017Z,51.96
2017-07-24T02:20:01.037Z,51.86
2017-07-24T02:21:01.081Z,52.25
2017-07-24T02:22:01.113Z,51.96
2017-07-24T02:23:01.134Z,52.06
2017-07-24T02:24:01.659Z,51.96
2017-07-24T02:25:01.176Z,52.34
2017-07-24T02:26:01.221Z,52.06
2017-07-24T02:27:01.250Z,51.96
2017-07-24T02:28:01.274Z,52.15
2017-07-24T02:29:01.303Z,51.96
2017-07-24T02:30:01.585Z,52.06
2017-07-24T02:31:01.057Z,52.06
2017-07-24T02:32:01.385Z,51.76
2017-07-24T02:33:01.418Z,51.96
2017-07-24T02:34:01.445Z,51.96
2017-07-24T02:35:01.737Z,51.76
2017-07-24T02:36:01.193Z,52.15
2017-07-24T02:37:01.533Z,52.06
2017-07-24T02:38:01.562Z,52.15
2017-07-24T02:39:01.276Z,52.06
2017-07-24T02:40:01.920Z,52.06
2017-07-24T02:41:01.337Z,52.06
2017-07-24T02:42:01.361Z,52.06
2017-07-24T02:43:01.391Z,52.06
2017-07-24T02:44:01.419Z,52.15
2017-07-24T02:45:01.701Z,52.15
2017-07-24T02:46:01.792Z,52.73
2017-07-24T02:47:01.511Z,52.34
2017-07-24T02:48:01.849Z,52.54
2017-07-24T02:49:01.567Z,52.64
2017-07-24T02:50:01.844Z,52.54
2017-07-24T02:51:01.938Z,52.25
2017-07-24T02:52:01.969Z,52.54
2017-07-24T02:53:01.983Z,52.34
2017-07-24T02:54:02.020Z,53.02
2017-07-24T02:55:02.028Z,52.64
2017-07-24T02:56:02.073Z,52.44
2017-07-24T02:57:01.791Z,52.44
2017-07-24T02:58:02.135Z,52.64
2017-07-24T02:59:02.159Z,52.51
2017-07-24T03:00:02.180Z,52.32
2017-07-24T03:01:02.217Z,52.61
2017-07-24T03:02:01.934Z,52.51
2017-07-24T03:03:02.281Z,52.42
2017-07-24T03:04:02.299Z,52.34
2017-07-24T03:05:02.581Z,52.51
2017-07-24T03:06:02.356Z,52.22
2017-07-24T03:07:02.386Z,53.09
2017-07-24T03:08:02.414Z,52.73
2017-07-24T03:09:02.452Z,52.42
2017-07-24T03:10:02.764Z,52.32
2017-07-24T03:11:02.511Z,53.39
2017-07-24T03:12:02.210Z,52.51
2017-07-24T03:13:02.557Z,52.51
2017-07-24T03:14:02.588Z,52.71
2017-07-24T03:15:02.916Z,52.42
2017-07-24T03:16:02.337Z,52.61
2017-07-24T03:17:02.666Z,52.25
2017-07-24T03:18:02.698Z,52.54
2017-07-24T03:19:02.416Z,52.34
2017-07-24T03:20:03.004Z,52.64
2017-07-24T03:21:02.785Z,52.54
2017-07-24T03:22:02.815Z,52.93
2017-07-24T03:23:02.534Z,53
2017-07-24T03:24:02.872Z,52.8
2017-07-24T03:25:03.192Z,52.32
2017-07-24T03:26:02.929Z,52.8
2017-07-24T03:27:02.958Z,53.19
2017-07-24T03:28:02.670Z,52.9
2017-07-24T03:29:03.011Z,53.22
2017-07-24T03:30:03.287Z,52.61
2017-07-24T03:31:03.074Z,53.22
2017-07-24T03:32:03.100Z,52.22
2017-07-24T03:33:03.126Z,53
2017-07-24T03:34:03.156Z,52.8
2017-07-24T03:35:03.481Z,53
2017-07-24T03:36:02.899Z,53.09
2017-07-24T03:37:02.932Z,52.9
2017-07-24T03:38:03.267Z,53
2017-07-24T03:39:02.993Z,52.9
2017-07-24T03:40:03.263Z,52.9
2017-07-24T03:41:03.358Z,52.9
2017-07-24T03:42:03.378Z,53.02
2017-07-24T03:43:03.095Z,52.93
2017-07-24T03:44:03.435Z,53.12
2017-07-24T03:45:03.722Z,52.25
2017-07-24T03:46:03.181Z,52.44
2017-07-24T03:47:03.212Z,52.34
2017-07-24T03:48:03.551Z,52.34
2017-07-24T03:49:03.569Z,52.73
2017-07-24T03:50:03.860Z,52.54
2017-07-24T03:51:03.638Z,52.34
2017-07-24T03:52:03.353Z,52.34
2017-07-24T03:53:03.691Z,51.96
2017-07-24T03:54:03.404Z,52.64
2017-07-24T03:55:03.688Z,51.76
2017-07-24T03:56:03.788Z,52.06
2017-07-24T03:57:03.807Z,51.76
2017-07-24T03:58:03.857Z,51.67
2017-07-24T03:59:03.548Z,52.06
2017-07-24T04:00:03.823Z,51.86
2017-07-24T04:01:03.607Z,52.15
2017-07-24T04:02:03.947Z,52.06
2017-07-24T04:03:03.974Z,52.06
2017-07-24T04:04:03.688Z,51.67
2017-07-24T04:05:04.332Z,52.06
2017-07-24T04:06:04.062Z,52.06
2017-07-24T04:07:04.090Z,51.96
2017-07-24T04:08:04.121Z,51.67
2017-07-24T04:09:03.837Z,52.06
2017-07-24T04:10:04.429Z,51.96
2017-07-24T04:11:04.202Z,51.86
2017-07-24T04:12:03.922Z,52.15
2017-07-24T04:13:04.258Z,51.76
2017-07-24T04:14:03.977Z,52.06
2017-07-24T04:15:04.007Z,52.34
2017-07-24T04:16:04.346Z,52.06
2017-07-24T04:17:04.375Z,52.25
2017-07-24T04:18:04.399Z,51.96
2017-07-24T04:19:04.436Z,52.54
2017-07-24T04:20:04.457Z,52.54
2017-07-24T04:21:04.486Z,52.73
2017-07-24T04:22:04.519Z,52.15
2017-07-24T04:23:04.232Z,51.86
2017-07-24T04:24:04.260Z,52.54
2017-07-24T04:25:04.598Z,52.44
2017-07-24T04:26:04.318Z,52.44
2017-07-24T04:27:04.657Z,52.34
2017-07-24T04:28:04.682Z,52.73
2017-07-24T04:29:04.712Z,52.64
2017-07-24T04:30:04.742Z,52.15
2017-07-24T04:31:04.777Z,52.15
2017-07-24T04:32:04.799Z,52.15
2017-07-24T04:33:04.829Z,52.25
2017-07-24T04:34:04.880Z,52.25
2017-07-24T04:35:04.885Z,52.06
2017-07-24T04:36:04.913Z,52.06
2017-07-24T04:37:04.939Z,51.84
2017-07-24T04:38:04.664Z,51.96
2017-07-24T04:39:04.991Z,51.76
2017-07-24T04:40:04.713Z,51.47
2017-07-24T04:41:04.739Z,51.47
2017-07-24T04:42:05.083Z,51.57
2017-07-24T04:43:05.110Z,51.54
2017-07-24T04:44:05.136Z,51.57
2017-07-24T04:45:04.858Z,51.47
2017-07-24T04:46:04.886Z,51.57
2017-07-24T04:47:05.235Z,51.18
2017-07-24T04:48:05.254Z,51.74
2017-07-24T04:49:04.977Z,51.16
2017-07-24T04:50:05.307Z,51.16
2017-07-24T04:51:05.338Z,51.54
2017-07-24T04:52:05.052Z,51.16
2017-07-24T04:53:05.397Z,51.25
2017-07-24T04:54:05.429Z,51.18
2017-07-24T04:55:05.138Z,51.16
2017-07-24T04:56:05.173Z,50.96
2017-07-24T04:57:05.517Z,51.25
2017-07-24T04:58:05.544Z,50.96
2017-07-24T04:59:05.568Z,50.96
2017-07-24T05:00:05.597Z,50.67
2017-07-24T05:01:05.623Z,50.77
2017-07-24T05:02:05.338Z,51.16
2017-07-24T05:03:05.681Z,50.96
2017-07-24T05:04:05.392Z,50.38
2017-07-24T05:05:05.738Z,50.38
2017-07-24T05:06:05.451Z,50.38
2017-07-24T05:07:05.479Z,50.48
2017-07-24T05:08:05.821Z,50.48
2017-07-24T05:09:05.845Z,50.57
2017-07-24T05:10:05.565Z,50.48
2017-07-24T05:11:05.915Z,50.87
2017-07-24T05:12:05.935Z,50.48
2017-07-24T05:13:05.952Z,50.48
2017-07-24T05:14:05.993Z,50.96
2017-07-24T05:15:05.706Z,50.38
2017-07-24T05:16:05.734Z,50.57
2017-07-24T05:17:06.075Z,50.38
2017-07-24T05:18:06.105Z,50.57
2017-07-24T05:19:05.817Z,50.77
2017-07-24T05:20:06.153Z,50.48
2017-07-24T05:21:06.183Z,50.19
2017-07-24T05:22:06.215Z,50.19
2017-07-24T05:23:05.936Z,50.09
2017-07-24T05:24:06.277Z,50.29
2017-07-24T05:25:06.297Z,49.99
2017-07-24T05:26:06.583Z,49.99
2017-07-24T05:27:06.359Z,50.19
2017-07-24T05:28:06.067Z,50.19
2017-07-24T05:29:06.101Z,50.09
2017-07-24T05:30:06.440Z,49.8
2017-07-24T05:31:06.723Z,50.19
2017-07-24T05:32:06.187Z,50.19
2017-07-24T05:33:06.529Z,50.19
2017-07-24T05:34:06.553Z,50.87
2017-07-24T05:35:06.582Z,50.19
2017-07-24T05:36:06.864Z,50.29
2017-07-24T05:37:06.630Z,50.29
2017-07-24T05:38:06.355Z,50.48
2017-07-24T05:39:06.389Z,50.38
2017-07-24T05:40:06.722Z,50.48
2017-07-24T05:41:06.688Z,50.48
2017-07-24T05:42:06.776Z,50.67
2017-07-24T05:43:06.808Z,50.38
2017-07-24T05:44:06.524Z,50.67
2017-07-24T05:45:06.930Z,50.77
2017-07-24T05:46:07.142Z,50.57
2017-07-24T05:47:06.916Z,50.67
2017-07-24T05:48:06.637Z,50.77
2017-07-24T05:49:06.666Z,50.57
2017-07-24T05:50:07.006Z,50.57
2017-07-24T05:51:07.286Z,50.48
2017-07-24T05:52:07.058Z,50.38
2017-07-24T05:53:07.089Z,50.57
2017-07-24T05:54:07.120Z,50.77
2017-07-24T05:55:06.834Z,50.77
2017-07-24T05:56:07.114Z,50.38
2017-07-24T05:57:07.204Z,50.67
2017-07-24T05:58:06.924Z,50.57
2017-07-24T05:59:06.956Z,50.67
2017-07-24T06:00:07.294Z,51.16
2017-07-24T06:01:07.303Z,50.77
2017-07-24T06:02:07.036Z,50.77
2017-07-24T06:03:07.374Z,50.77
2017-07-24T06:04:07.084Z,50.48
2017-07-24T06:05:07.118Z,50.38
2017-07-24T06:06:07.394Z,50.57
2017-07-24T06:07:07.485Z,50.38
2017-07-24T06:08:07.512Z,50.57
2017-07-24T06:09:07.541Z,50.57
2017-07-24T06:10:07.568Z,50.57
2017-07-24T06:11:07.847Z,50.48
2017-07-24T06:12:07.624Z,50.57
2017-07-24T06:13:07.341Z,50.48
2017-07-24T06:14:07.682Z,50.48
2017-07-24T06:15:07.706Z,50.57
2017-07-24T06:16:08.048Z,50.96
2017-07-24T06:17:07.780Z,50.38
2017-07-24T06:18:07.481Z,50.48
2017-07-24T06:19:07.509Z,50.67
2017-07-24T06:20:07.850Z,50.57
2017-07-24T06:21:07.865Z,50.38
2017-07-24T06:22:07.912Z,50.38
2017-07-24T06:23:07.938Z,50.57
2017-07-24T06:24:07.963Z,50.38
2017-07-24T06:25:07.999Z,50.38
2017-07-24T06:26:08.319Z,50.38
2017-07-24T06:27:07.737Z,50.38
2017-07-24T06:28:07.765Z,50.48
2017-07-24T06:29:07.794Z,50.48
2017-07-24T06:30:07.821Z,50.57
2017-07-24T06:31:07.850Z,50.48
2017-07-24T06:32:08.197Z,50.38
2017-07-24T06:33:08.216Z,50.57
2017-07-24T06:34:08.245Z,50.48
2017-07-24T06:35:08.278Z,50.57
2017-07-24T06:36:07.993Z,50.57
2017-07-24T06:37:08.333Z,50.57
2017-07-24T06:38:08.050Z,50.57
2017-07-24T06:39:08.390Z,50.57
2017-07-24T06:40:08.113Z,50.38
2017-07-24T06:41:08.440Z,50.77
2017-07-24T06:42:08.160Z,50.38
2017-07-24T06:43:08.502Z,50.48
2017-07-24T06:44:08.530Z,50.38
2017-07-24T06:45:08.244Z,50.57
2017-07-24T06:46:08.591Z,50.57
2017-07-24T06:47:08.305Z,50.48
2017-07-24T06:48:08.645Z,50.38
2017-07-24T06:49:08.675Z,50.48
2017-07-24T06:50:08.391Z,50.38
2017-07-24T06:51:08.723Z,50.38
2017-07-24T06:52:08.767Z,50.38
2017-07-24T06:53:08.788Z,50.48
2017-07-24T06:54:08.501Z,50.57
2017-07-24T06:55:08.838Z,50.48
2017-07-24T06:56:08.872Z,50.67
2017-07-24T06:57:08.583Z,50.57
2017-07-24T06:58:08.925Z,50.57
2017-07-24T06:59:08.954Z,50.38
2017-07-24T07:00:08.670Z,50.57
2017-07-24T07:01:09.010Z,50.77
2017-07-24T07:02:08.731Z,50.77
2017-07-24T07:03:09.069Z,50.87
2017-07-24T07:04:09.098Z,50.48
2017-07-24T07:05:09.122Z,50.67
2017-07-24T07:06:08.841Z,50.19
2017-07-24T07:07:09.181Z,50.67
2017-07-24T07:08:08.903Z,50.67
2017-07-24T07:09:09.242Z,50.67
2017-07-24T07:10:09.267Z,50.77
2017-07-24T07:11:08.984Z,50.29
2017-07-24T07:12:09.354Z,50.48
2017-07-24T07:13:09.354Z,50.29
2017-07-24T07:14:09.378Z,50.29
2017-07-24T07:15:09.407Z,50.09
2017-07-24T07:16:09.436Z,50.29
2017-07-24T07:17:09.465Z,50.19
2017-07-24T07:18:09.496Z,50.38
2017-07-24T07:19:09.521Z,50.67
2017-07-24T07:20:09.548Z,50.38
2017-07-24T07:21:09.576Z,50.48
2017-07-24T07:22:09.605Z,50.38
2017-07-24T07:23:09.634Z,50.57
2017-07-24T07:24:09.662Z,50.29
2017-07-24T07:25:09.379Z,50.29
2017-07-24T07:26:09.724Z,50.38
2017-07-24T07:27:09.997Z,49.99
2017-07-24T07:28:09.471Z,49.8
2017-07-24T07:29:09.807Z,50.19
2017-07-24T07:30:09.839Z,50.21
2017-07-24T07:31:09.868Z,50.09
2017-07-24T07:32:10.145Z,50.21
2017-07-24T07:33:09.917Z,50.09
2017-07-24T07:34:09.942Z,50.09
2017-07-24T07:35:09.973Z,50.21
2017-07-24T07:36:09.690Z,50.12
2017-07-24T07:37:09.973Z,50.29
2017-07-24T07:38:09.745Z,50.19
2017-07-24T07:39:10.090Z,49.73
2017-07-24T07:40:10.119Z,49.92
2017-07-24T07:41:09.831Z,49.82
2017-07-24T07:42:10.424Z,49.73
2017-07-24T07:43:09.897Z,49.82
2017-07-24T07:44:10.231Z,49.82
2017-07-24T07:45:09.947Z,49.82
2017-07-24T07:46:10.290Z,49.82
2017-07-24T07:47:10.573Z,49.82
2017-07-24T07:48:10.036Z,49.92
2017-07-24T07:49:10.061Z,49.82
2017-07-24T07:50:10.091Z,49.92
2017-07-24T07:51:10.120Z,49.82
2017-07-24T07:52:10.713Z,49.82
2017-07-24T07:53:10.483Z,49.44
2017-07-24T07:54:10.203Z,49.73
2017-07-24T07:55:10.547Z,49.44
2017-07-24T07:56:10.575Z,49.05
2017-07-24T07:57:10.853Z,49.05
2017-07-24T07:58:10.629Z,49.05
2017-07-24T07:59:10.666Z,49.54
2017-07-24T08:00:10.382Z,49.34
2017-07-24T08:01:10.712Z,49.34
2017-07-24T08:02:10.685Z,49.34
2017-07-24T08:03:10.770Z,49.24
2017-07-24T08:04:10.803Z,49.24
2017-07-24T08:05:10.833Z,49.54
2017-07-24T08:06:10.860Z,49.63
2017-07-24T08:07:10.828Z,49.15
2017-07-24T08:08:10.605Z,49.34
2017-07-24T08:09:10.946Z,49.73
2017-07-24T08:10:10.660Z,49.73
2017-07-24T08:11:10.996Z,49.44
2017-07-24T08:12:10.970Z,49.54
2017-07-24T08:13:11.068Z,49.44
2017-07-24T08:14:11.086Z,49.63
2017-07-24T08:15:11.116Z,49.32
2017-07-24T08:16:11.144Z,49.12
2017-07-24T08:17:11.473Z,49.15
2017-07-24T08:18:11.197Z,49.24
2017-07-24T08:19:11.235Z,49.15
2017-07-24T08:20:11.262Z,49.15
2017-07-24T08:21:11.289Z,49.24
2017-07-24T08:22:11.565Z,49.7
2017-07-24T08:23:11.333Z,49.34
2017-07-24T08:24:11.370Z,49.34
2017-07-24T08:25:11.398Z,49.44
2017-07-24T08:26:11.115Z,49.44
2017-07-24T08:27:11.754Z,49.54
2017-07-24T08:28:11.485Z,49.44
2017-07-24T08:29:11.519Z,48.95
2017-07-24T08:30:11.544Z,49.54
2017-07-24T08:31:11.261Z,49.24
2017-07-24T08:32:11.584Z,49.73
2017-07-24T08:33:11.628Z,49.24
2017-07-24T08:34:11.663Z,49.44
2017-07-24T08:35:11.692Z,49.63
2017-07-24T08:36:11.717Z,49.63
2017-07-24T08:37:11.996Z,49.24
2017-07-24T08:38:11.778Z,49.24
2017-07-24T08:39:11.802Z,49.54
2017-07-24T08:40:11.828Z,49.54
2017-07-24T08:41:11.564Z,49.15
2017-07-24T08:42:12.135Z,49.44
2017-07-24T08:43:11.602Z,49.15
2017-07-24T08:44:11.961Z,49.34
2017-07-24T08:45:11.973Z,49.34
2017-07-24T08:46:12.001Z,49.34
2017-07-24T08:47:12.011Z,49.24
2017-07-24T08:48:12.053Z,49.15
2017-07-24T08:49:12.088Z,49.44
2017-07-24T08:50:11.804Z,49.24
2017-07-24T08:51:12.145Z,49.05
2017-07-24T08:52:12.426Z,49.15
2017-07-24T08:53:12.201Z,49.34
2017-07-24T08:54:12.230Z,49.44
2017-07-24T08:55:12.260Z,48.76
2017-07-24T08:56:12.287Z,49.15
2017-07-24T08:57:12.564Z,48.95
2017-07-24T08:58:12.365Z,49.24
2017-07-24T08:59:12.054Z,48.95
2017-07-24T09:00:12.092Z,49.05
2017-07-24T09:01:12.117Z,49.24
2017-07-24T09:02:12.145Z,48.85
2017-07-24T09:03:12.482Z,48.66
2017-07-24T09:04:12.514Z,48.85
2017-07-24T09:05:12.538Z,48.47
2017-07-24T09:06:12.572Z,48.66
2017-07-24T09:07:12.600Z,48.57
2017-07-24T09:08:12.318Z,48.57
2017-07-24T09:09:12.654Z,48.27
2017-07-24T09:10:12.686Z,48.18
2017-07-24T09:11:12.716Z,47.69
2017-07-24T09:12:12.746Z,47.79
2017-07-24T09:13:12.774Z,47.89
2017-07-24T09:14:12.497Z,47.69
2017-07-24T09:15:12.832Z,48.37
2017-07-24T09:16:12.866Z,48.37
2017-07-24T09:17:12.581Z,48.27
2017-07-24T09:18:12.607Z,48.37
2017-07-24T09:19:12.634Z,48.08
2017-07-24T09:20:12.664Z,48.47
2017-07-24T09:21:12.703Z,48.47
2017-07-24T09:22:13.033Z,48.47
2017-07-24T09:23:12.753Z,48.27
2017-07-24T09:24:13.087Z,48.18
2017-07-24T09:25:13.117Z,48.08
2017-07-24T09:26:13.140Z,47.89
2017-07-24T09:27:13.195Z,48.66
2017-07-24T09:28:12.887Z,49.05
2017-07-24T09:29:12.922Z,48.57
2017-07-24T09:30:13.261Z,48.37
2017-07-24T09:31:13.289Z,47.89
2017-07-24T09:32:13.318Z,48.66
2017-07-24T09:33:13.348Z,48.47
2017-07-24T09:34:13.063Z,48.57
2017-07-24T09:35:13.404Z,48.47
2017-07-24T09:36:13.430Z,48.57
2017-07-24T09:37:13.466Z,48.37
2017-07-24T09:38:13.179Z,48.57
2017-07-24T09:39:13.519Z,48.47
2017-07-24T09:40:13.240Z,48.66
2017-07-24T09:41:13.580Z,47.98
2017-07-24T09:42:13.606Z,48.47
2017-07-24T09:43:13.333Z,48.57
2017-07-24T09:44:13.667Z,48.95
2017-07-24T09:45:13.381Z,48.57
2017-07-24T09:46:13.408Z,48.76
2017-07-24T09:47:13.749Z,48.66
2017-07-24T09:48:13.775Z,48.66
2017-07-24T09:49:13.495Z,48.47
2017-07-24T09:50:13.836Z,48.95
2017-07-24T09:51:13.553Z,48.47
2017-07-24T09:52:13.894Z,48.47
2017-07-24T09:53:13.923Z,48.18
2017-07-24T09:54:13.638Z,48.57
2017-07-24T09:55:13.668Z,47.89
2017-07-24T09:56:14.014Z,47.89
2017-07-24T09:57:14.036Z,47.5
2017-07-24T09:58:14.066Z,47.5
2017-07-24T09:59:14.094Z,47.79
2017-07-24T10:00:14.124Z,48
2017-07-24T10:01:13.840Z,47.79
2017-07-24T10:02:14.176Z,47.6
2017-07-24T10:03:13.898Z,47.89
2017-07-24T10:04:14.244Z,47.98
2017-07-24T10:05:13.956Z,47.6
2017-07-24T10:06:14.297Z,47.89
2017-07-24T10:07:14.317Z,47.5
2017-07-24T10:08:14.350Z,47.3
2017-07-24T10:09:14.380Z,47.98
2017-07-24T10:10:14.409Z,47.79
2017-07-24T10:11:14.128Z,47.69
2017-07-24T10:12:14.458Z,47.4
2017-07-24T10:13:14.499Z,47.4
2017-07-24T10:14:14.531Z,47.42
2017-07-24T10:15:14.241Z,47.02
2017-07-24T10:16:14.584Z,47.13
2017-07-24T10:17:14.609Z,47.3
2017-07-24T10:18:14.638Z,47.23
2017-07-24T10:19:14.667Z,47.52
2017-07-24T10:20:14.694Z,47.23
2017-07-24T10:21:14.416Z,47.13
2017-07-24T10:22:14.757Z,46.84
2017-07-24T10:23:14.781Z,46.75
2017-07-24T10:24:14.811Z,46.65
2017-07-24T10:25:14.527Z,46.84
2017-07-24T10:26:14.557Z,46.75
2017-07-24T10:27:14.906Z,46.75
2017-07-24T10:28:14.615Z,47.33
2017-07-24T10:29:14.959Z,47.13
2017-07-24T10:30:14.986Z,46.94
2017-07-24T10:31:15.009Z,46.65
2017-07-24T10:32:14.737Z,46.94
2017-07-24T10:33:15.323Z,46.65
2017-07-24T10:34:15.101Z,46.55
2017-07-24T10:35:15.133Z,46.72
2017-07-24T10:36:15.162Z,46.84
2017-07-24T10:37:15.187Z,46.84
2017-07-24T10:38:15.154Z,46.62
2017-07-24T10:39:15.248Z,46.84
2017-07-24T10:40:15.273Z,46.75
2017-07-24T10:41:15.306Z,46.82
2017-07-24T10:42:15.017Z,47.02
2017-07-24T10:43:15.302Z,46.82
2017-07-24T10:44:15.399Z,46.45
2017-07-24T10:45:15.413Z,46.45
2017-07-24T10:46:15.481Z,46.65
2017-07-24T10:47:15.169Z,46.55
2017-07-24T10:48:15.759Z,46.55
2017-07-24T10:49:15.532Z,46.82
2017-07-24T10:50:15.256Z,46.72
2017-07-24T10:51:15.593Z,46.72
2017-07-24T10:52:15.618Z,46.72
2017-07-24T10:53:15.902Z,47.3
2017-07-24T10:54:15.679Z,47.02
2017-07-24T10:55:15.398Z,47.11
2017-07-24T10:56:15.738Z,46.92
2017-07-24T10:57:15.768Z,46.62
2017-07-24T10:58:16.051Z,46.53
2017-07-24T10:59:15.824Z,46.53
2017-07-24T11:00:15.853Z,46.75
2017-07-24T11:01:15.880Z,46.72
2017-07-24T11:02:15.911Z,46.75
2017-07-24T11:03:16.190Z,46.72
2017-07-24T11:04:15.651Z,46.75
2017-07-24T11:05:15.992Z,46.75
2017-07-24T11:06:16.026Z,46.65
2017-07-24T11:07:16.053Z,46.94
2017-07-24T11:08:16.083Z,47.33
2017-07-24T11:09:16.113Z,47.02
2017-07-24T11:10:16.141Z,46.65
2017-07-24T11:11:16.170Z,47.52
2017-07-24T11:12:16.199Z,46.55
2017-07-24T11:13:15.914Z,46.94
2017-07-24T11:14:16.257Z,46.65
2017-07-24T11:15:16.285Z,47.03
2017-07-24T11:16:16.318Z,47.03
2017-07-24T11:17:16.347Z,46.65
2017-07-24T11:18:16.372Z,46.45
2017-07-24T11:19:16.401Z,46.45
2017-07-24T11:20:16.433Z,46.65
2017-07-24T11:21:16.166Z,46.55
2017-07-24T11:22:16.489Z,46.84
2017-07-24T11:23:16.513Z,46.65
2017-07-24T11:24:16.549Z,46.36
2017-07-24T11:25:16.260Z,46.45
2017-07-24T11:26:16.602Z,46.58
2017-07-24T11:27:16.634Z,46.65
2017-07-24T11:28:16.351Z,46.75
2017-07-24T11:29:16.699Z,46.94
2017-07-24T11:30:16.404Z,46.16
2017-07-24T11:31:16.435Z,46.75
2017-07-24T11:32:16.770Z,46.65
2017-07-24T11:33:16.495Z,46.65
2017-07-24T11:34:16.531Z,46.75
2017-07-24T11:35:16.862Z,46.55
2017-07-24T11:36:16.580Z,46.84
2017-07-24T11:37:16.603Z,46.55
2017-07-24T11:38:16.953Z,46.55
2017-07-24T11:39:16.672Z,46.94
2017-07-24T11:40:17.009Z,46.84
2017-07-24T11:41:17.040Z,47.62
2017-07-24T11:42:17.067Z,47.72
2017-07-24T11:43:17.091Z,47.23
2017-07-24T11:44:17.128Z,47.23
2017-07-24T11:45:16.841Z,47.6
2017-07-24T11:46:16.870Z,47.72
2017-07-24T11:47:16.900Z,47.72
2017-07-24T11:48:17.240Z,47.62
2017-07-24T11:49:16.963Z,47.62
2017-07-24T11:50:17.302Z,47.62
2017-07-24T11:51:17.015Z,47.69
2017-07-24T11:52:17.355Z,47.62
2017-07-24T11:53:17.392Z,47.81
2017-07-24T11:54:17.413Z,48
2017-07-24T11:55:17.133Z,47.62
2017-07-24T11:56:17.465Z,47.33
2017-07-24T11:57:17.502Z,46.58
2017-07-24T11:58:17.533Z,46.96
2017-07-24T11:59:17.563Z,46.58
2017-07-24T12:00:17.278Z,46.01
2017-07-24T12:01:17.308Z,46.01
2017-07-24T12:02:17.643Z,45.94
2017-07-24T12:03:17.683Z,46.33
2017-07-24T12:04:17.708Z,45.55
2017-07-24T12:05:17.449Z,44.97
2017-07-24T12:06:17.778Z,45.17
2017-07-24T12:07:17.487Z,44.87
2017-07-24T12:08:17.850Z,45.18
2017-07-24T12:09:17.849Z,45.26
2017-07-24T12:10:17.891Z,45.07
2017-07-24T12:11:17.923Z,44.87
2017-07-24T12:12:17.949Z,45.36
2017-07-24T12:13:17.679Z,45.45
2017-07-24T12:14:18.005Z,45.45
2017-07-24T12:15:18.042Z,45.55
2017-07-24T12:16:18.082Z,46.04
2017-07-24T12:17:18.095Z,46.42
2017-07-24T12:18:17.817Z,46.31
2017-07-24T12:19:17.852Z,46.5
2017-07-24T12:20:18.182Z,46.5
2017-07-24T12:21:18.219Z,46.69
2017-07-24T12:22:17.927Z,46.89
2017-07-24T12:23:18.268Z,47.57
2017-07-24T12:24:18.295Z,47.74
2017-07-24T12:25:18.333Z,47.83
2017-07-24T12:26:18.365Z,47.83
2017-07-24T12:27:18.080Z,47.55
2017-07-24T12:28:18.420Z,47.55
2017-07-24T12:29:18.132Z,47.64
2017-07-24T12:30:18.482Z,47.83
2017-07-24T12:31:18.510Z,47.83
2017-07-24T12:32:18.540Z,47.74
2017-07-24T12:33:18.571Z,47.55
2017-07-24T12:34:18.285Z,47.83
2017-07-24T12:35:18.314Z,47.74
2017-07-24T12:36:18.655Z,48.13
2017-07-24T12:37:18.684Z,48.32
2017-07-24T12:38:18.719Z,48.61
2017-07-24T12:39:18.745Z,48.32
2017-07-24T12:40:18.775Z,48.32
2017-07-24T12:41:18.802Z,48.61
2017-07-24T12:42:18.840Z,48.9
2017-07-24T12:43:18.860Z,49
2017-07-24T12:44:18.582Z,49
2017-07-24T12:45:18.919Z,48.61
2017-07-24T12:46:18.639Z,48.42
2017-07-24T12:47:18.671Z,48.52
2017-07-24T12:48:19.013Z,47.76
2017-07-24T12:49:19.041Z,47.86
2017-07-24T12:50:18.758Z,47.38
2017-07-24T12:51:18.794Z,47.2
2017-07-24T12:52:18.819Z,46.81
2017-07-24T12:53:19.161Z,46.72
2017-07-24T12:54:19.198Z,46.55
2017-07-24T12:55:19.222Z,46.52